Time;durP1;ratioP1;P1;durP2;ratioP2;P2;SDS_P1;SDS_P2;PMS_P1;PMS_P2;Temp;Humidity;BMP_temperature;BMP_pressure;BME280_temperature;BME280_humidity;BME280_pressure;Samples;Min_cycle;Max_cycle;Signal;HPM_P1;HPM_P2
2022/08/02 00:01:34;;;;;;;;;;;13.00;99.90;;;;;;4969997;28;20475;-83
2022/08/02 00:04:00;;;;;;;;;;;13.00;99.90;;;;;;4970137;28;20005;-81
2022/08/02 00:06:26;;;;;;;;;;;12.90;99.90;;;;;;4956813;28;20384;-78
2022/08/02 00:08:53;;;;;;;;;;;12.90;99.90;;;;;;4957737;28;19932;-78
2022/08/02 00:11:19;;;;;;;;;;;12.90;99.90;;;;;;4973795;28;19930;-80
2022/08/02 00:14:04;;;;;;;;;;;12.80;99.90;;;;;;4976508;28;20024;-82
2022/08/02 00:16:37;;;;;;;;;;;12.80;99.90;;;;;;4952216;28;20383;-83
2022/08/02 00:19:03;;;;;;;;;;;12.80;99.90;;;;;;4972074;28;19926;-84
2022/08/02 00:21:29;;;;;;;;;;;12.80;99.90;;;;;;4975903;28;19952;-83
2022/08/02 00:23:54;;;;;;;;;;;12.80;99.90;;;;;;4980529;28;19930;-82
2022/08/02 00:26:20;;;;;;;;;;;12.70;99.90;;;;;;4973036;28;19922;-83
2022/08/02 00:28:47;;;;;;;;;;;12.80;99.90;;;;;;4952016;28;19926;-79
2022/08/02 00:31:12;;;;;;;;;;;12.70;99.90;;;;;;4970918;28;19941;-82
2022/08/02 00:33:39;;;;;;;;;;;12.70;99.90;;;;;;4951663;28;19968;-85
2022/08/02 00:36:05;;;;;;;;;;;12.80;99.90;;;;;;4972685;28;19956;-84
2022/08/02 00:38:31;;;;;;;;;;;12.80;99.90;;;;;;4955928;28;19933;-82
2022/08/02 00:40:57;;;;;;;;;;;12.70;99.90;;;;;;4985442;28;19950;-86
2022/08/02 00:43:22;;;;;;;;;;;12.70;99.90;;;;;;4956389;28;20288;-83
2022/08/02 00:45:48;;;;;;;;;;;12.70;99.90;;;;;;4946961;28;20013;-83
2022/08/02 00:48:20;;;;;;;;;;;12.70;99.90;;;;;;4952294;28;19925;-85
2022/08/02 00:50:45;;;;;;;;;;;12.70;99.90;;;;;;4984606;28;19926;-85
2022/08/02 00:53:11;;;;;;;;;;;12.80;99.90;;;;;;4971631;28;19952;-82
2022/08/02 00:55:38;;;;;;;;;;;12.80;99.90;;;;;;4965274;28;19926;-82
2022/08/02 00:58:07;;;;;;;;;;;12.80;99.90;;;;;;4973610;28;19926;-84
2022/08/02 01:00:32;;;;;;;;;;;12.80;99.90;;;;;;4961933;28;19969;-84
2022/08/02 01:02:58;;;;;;;;;;;12.70;99.90;;;;;;4963757;28;19961;-85
2022/08/02 01:05:24;;;;;;;;;;;12.70;99.90;;;;;;4983055;28;19930;-80
2022/08/02 01:07:52;;;;;;;;;;;12.70;99.90;;;;;;4975257;28;20272;-84
2022/08/02 01:10:18;;;;;;;;;;;12.60;99.90;;;;;;4957282;28;19926;-85
2022/08/02 01:12:46;;;;;;;;;;;12.60;99.90;;;;;;4953651;28;19936;-83
2022/08/02 01:15:21;;;;;;;;;;;12.50;99.90;;;;;;4989017;28;19926;-82
2022/08/02 01:17:47;;;;;;;;;;;12.50;99.90;;;;;;4964245;28;19930;-83
2022/08/02 01:20:32;;;;;;;;;;;12.40;99.90;;;;;;4971542;28;19930;-84
2022/08/02 01:23:16;;;;;;;;;;;12.40;99.90;;;;;;4967466;28;20380;-85
2022/08/02 01:25:42;;;;;;;;;;;12.40;99.90;;;;;;4970563;28;19926;-86
2022/08/02 01:28:16;;;;;;;;;;;12.40;99.90;;;;;;4951316;28;19930;-83
2022/08/02 01:30:43;;;;;;;;;;;12.40;99.90;;;;;;4974966;28;19932;-84
2022/08/02 01:33:11;;;;;;;;;;;12.30;99.90;;;;;;4955518;28;20012;-82
2022/08/02 01:35:49;;;;;;;;;;;12.20;99.90;;;;;;4966625;28;19988;-82
2022/08/02 01:38:31;;;;;;;;;;;12.20;99.90;;;;;;4971769;28;20032;-83
2022/08/02 01:40:58;;;;;;;;;;;12.20;99.90;;;;;;4969469;28;19933;-83
2022/08/02 01:43:25;;;;;;;;;;;12.20;99.90;;;;;;4964740;28;19934;-83
2022/08/02 01:45:52;;;;;;;;;;;12.10;99.90;;;;;;4971058;28;19930;-85
2022/08/02 01:48:19;;;;;;;;;;;12.20;99.90;;;;;;4964288;28;19950;-82
2022/08/02 01:50:45;;;;;;;;;;;12.20;99.90;;;;;;4998699;28;20303;-83
2022/08/02 01:53:12;;;;;;;;;;;12.10;99.90;;;;;;4961549;28;20389;-82
2022/08/02 01:55:41;;;;;;;;;;;12.10;99.90;;;;;;4974125;28;20021;-81
2022/08/02 01:58:08;;;;;;;;;;;12.00;99.90;;;;;;4971459;28;19930;-86
2022/08/02 02:00:38;;;;;;;;;;;12.00;99.90;;;;;;4954247;28;20016;-85
2022/08/02 02:03:05;;;;;;;;;;;12.00;99.90;;;;;;4966729;28;19930;-83
2022/08/02 02:08:53;;;;;;;;;;;11.90;99.90;;;;;;5002071;23;19931;-83
2022/08/02 02:11:20;;;;;;;;;;;11.90;99.90;;;;;;4990538;28;20506;-82
2022/08/02 02:13:46;;;;;;;;;;;11.90;99.90;;;;;;4978415;28;19925;-81
2022/08/02 02:16:12;;;;;;;;;;;12.00;99.90;;;;;;4976697;28;19929;-84
2022/08/02 02:18:42;;;;;;;;;;;12.00;99.90;;;;;;4996222;28;19933;-81
2022/08/02 02:21:08;;;;;;;;;;;12.00;99.90;;;;;;4998405;28;20455;-82
2022/08/02 02:23:34;;;;;;;;;;;12.00;99.90;;;;;;4994231;28;20020;-81
2022/08/02 02:26:01;;;;;;;;;;;12.00;99.90;;;;;;4995225;28;19925;-84
2022/08/02 02:28:30;;;;;;;;;;;12.10;99.90;;;;;;4992492;28;19933;-85
2022/08/02 02:31:17;;;;;;;;;;;12.10;99.90;;;;;;4978604;28;19929;-82
2022/08/02 02:34:00;;;;;;;;;;;12.10;99.90;;;;;;4991404;28;20059;-81
2022/08/02 02:36:27;;;;;;;;;;;12.10;99.90;;;;;;4974498;28;19926;-82
2022/08/02 02:38:56;;;;;;;;;;;12.10;99.90;;;;;;5006632;28;19926;-84
2022/08/02 02:41:22;;;;;;;;;;;12.20;99.90;;;;;;4997375;28;20327;-82
2022/08/02 02:43:49;;;;;;;;;;;12.20;99.90;;;;;;4986543;28;20004;-81
2022/08/02 02:46:21;;;;;;;;;;;12.10;99.90;;;;;;4982257;28;20024;-83
2022/08/02 02:48:48;;;;;;;;;;;12.20;99.90;;;;;;4974558;28;20465;-82
2022/08/02 02:51:15;;;;;;;;;;;12.20;99.90;;;;;;4993993;28;19933;-82
2022/08/02 02:53:42;;;;;;;;;;;12.10;99.90;;;;;;4964266;28;19926;-84
2022/08/02 02:56:08;;;;;;;;;;;12.20;99.90;;;;;;4992813;28;19933;-80
2022/08/02 02:58:34;;;;;;;;;;;12.20;99.90;;;;;;4992498;28;19929;-82
2022/08/02 03:03:44;;;;;;;;;;;12.20;99.90;;;;;;4981869;28;19937;-81
2022/08/02 03:06:10;;;;;;;;;;;12.20;99.90;;;;;;4977438;28;19961;-84
2022/08/02 03:08:36;;;;;;;;;;;12.20;99.90;;;;;;5004829;28;19995;-82
2022/08/02 03:11:03;;;;;;;;;;;12.20;99.90;;;;;;4979152;28;20445;-81
2022/08/02 03:13:30;;;;;;;;;;;12.30;99.90;;;;;;4988885;28;19991;-79
2022/08/02 03:15:56;;;;;;;;;;;12.30;99.90;;;;;;4976357;28;19932;-83
2022/08/02 03:18:33;;;;;;;;;;;12.30;99.90;;;;;;4984778;28;19929;-82
2022/08/02 03:21:04;;;;;;;;;;;12.30;99.90;;;;;;4993827;28;20012;-81
2022/08/02 03:23:29;;;;;;;;;;;12.30;99.90;;;;;;4981261;28;20360;-80
2022/08/02 03:25:56;;;;;;;;;;;12.30;99.90;;;;;;4982097;28;19925;-86
2022/08/02 03:28:22;;;;;;;;;;;12.30;99.90;;;;;;4977419;28;19933;-88
2022/08/02 03:30:48;;;;;;;;;;;12.30;99.90;;;;;;4973331;28;20289;-81
2022/08/02 03:33:17;;;;;;;;;;;12.30;99.90;;;;;;4983537;28;19925;-83
2022/08/02 03:35:44;;;;;;;;;;;12.20;99.90;;;;;;4999786;28;19926;-80
2022/08/02 03:38:12;;;;;;;;;;;12.30;99.90;;;;;;4994357;28;19925;-80
2022/08/02 03:40:38;;;;;;;;;;;12.30;99.90;;;;;;5003504;28;19936;-83
2022/08/02 03:43:11;;;;;;;;;;;12.30;99.90;;;;;;4965708;28;19980;-80
2022/08/02 03:45:41;;;;;;;;;;;12.30;99.90;;;;;;4963081;28;19933;-82
2022/08/02 03:48:07;;;;;;;;;;;12.30;99.90;;;;;;4985912;28;19936;-83
2022/08/02 03:50:35;;;;;;;;;;;12.30;99.90;;;;;;4998376;28;19930;-86
2022/08/02 03:53:05;;;;;;;;;;;12.30;99.90;;;;;;4989137;28;19936;-82
2022/08/02 03:55:31;;;;;;;;;;;12.30;99.90;;;;;;4966458;28;19925;-81
2022/08/02 03:57:57;;;;;;;;;;;12.30;99.90;;;;;;4984331;28;19933;-81
2022/08/02 04:00:25;;;;;;;;;;;12.30;99.90;;;;;;4981170;28;20299;-82
2022/08/02 04:02:51;;;;;;;;;;;12.40;99.90;;;;;;4986502;28;20045;-83
2022/08/02 04:05:17;;;;;;;;;;;12.40;99.90;;;;;;4975904;28;19926;-84
2022/08/02 04:07:44;;;;;;;;;;;12.40;99.90;;;;;;4976075;28;20312;-80
2022/08/02 04:10:11;;;;;;;;;;;12.40;99.90;;;;;;4981846;28;19938;-79
2022/08/02 04:12:37;;;;;;;;;;;12.40;99.90;;;;;;4991764;28;20620;-84
2022/08/02 04:15:10;;;;;;;;;;;12.40;99.90;;;;;;4976899;28;19925;-80
2022/08/02 04:17:49;;;;;;;;;;;12.40;99.90;;;;;;5002238;28;19932;-80
2022/08/02 04:20:34;;;;;;;;;;;12.50;99.90;;;;;;5003739;28;19929;-85
2022/08/02 04:23:03;;;;;;;;;;;12.50;99.90;;;;;;4992048;28;19930;-79
2022/08/02 04:25:31;;;;;;;;;;;12.50;99.90;;;;;;4997247;28;19929;-81
2022/08/02 04:27:58;;;;;;;;;;;12.50;99.90;;;;;;4976089;28;20264;-80
2022/08/02 04:30:24;;;;;;;;;;;12.50;99.90;;;;;;4991760;28;19930;-78
2022/08/02 04:32:51;;;;;;;;;;;12.50;99.90;;;;;;4980998;28;20287;-81
2022/08/02 04:35:17;;;;;;;;;;;12.50;99.90;;;;;;4995934;28;19925;-79
2022/08/02 04:37:43;;;;;;;;;;;12.50;99.90;;;;;;5009173;28;19925;-82
2022/08/02 04:40:10;;;;;;;;;;;12.60;99.90;;;;;;4991902;28;19936;-79
2022/08/02 04:42:36;;;;;;;;;;;12.60;99.90;;;;;;4997463;28;19925;-82
2022/08/02 04:45:03;;;;;;;;;;;12.60;99.90;;;;;;4981133;28;20027;-80
2022/08/02 04:47:29;;;;;;;;;;;12.70;99.90;;;;;;4970966;28;19937;-79
2022/08/02 04:49:54;;;;;;;;;;;12.70;99.90;;;;;;4975974;28;20476;-79
2022/08/02 04:52:20;;;;;;;;;;;12.70;99.90;;;;;;4990404;28;20116;-77
2022/08/02 04:54:46;;;;;;;;;;;12.80;99.90;;;;;;4994294;28;19929;-81
2022/08/02 05:00:11;;;;;;;;;;;12.90;99.90;;;;;;4993354;28;19929;-83
2022/08/02 05:02:37;;;;;;;;;;;12.90;99.90;;;;;;4971432;28;20522;-80
2022/08/02 05:05:03;;;;;;;;;;;13.00;99.90;;;;;;4976290;28;19930;-78
2022/08/02 05:07:29;;;;;;;;;;;13.00;99.90;;;;;;4963217;28;19929;-80
2022/08/02 05:09:54;;;;;;;;;;;13.10;99.90;;;;;;4983595;28;19977;-81
2022/08/02 05:12:21;;;;;;;;;;;13.10;99.90;;;;;;4979952;28;19929;-80
2022/08/02 05:14:47;;;;;;;;;;;13.20;99.90;;;;;;4979231;28;19932;-81
2022/08/02 05:17:13;;;;;;;;;;;13.20;99.90;;;;;;4994214;28;19930;-81
2022/08/02 05:19:42;;;;;;;;;;;13.30;99.90;;;;;;4991355;28;19930;-79
2022/08/02 05:22:07;;;;;;;;;;;13.40;99.90;;;;;;4972442;28;20310;-79
2022/08/02 05:24:34;;;;;;;;;;;13.40;99.90;;;;;;4974158;28;19929;-82
2022/08/02 05:27:00;;;;;;;;;;;13.50;99.90;;;;;;4977470;28;19929;-84
2022/08/02 05:29:26;;;;;;;;;;;13.60;99.90;;;;;;4972350;28;19932;-79
2022/08/02 05:31:53;;;;;;;;;;;13.60;99.90;;;;;;4998541;28;19939;-82
2022/08/02 05:34:19;;;;;;;;;;;13.70;99.90;;;;;;4981062;28;19980;-80
2022/08/02 05:36:47;;;;;;;;;;;13.80;99.90;;;;;;4978561;28;19925;-80
2022/08/02 05:39:13;;;;;;;;;;;13.70;99.90;;;;;;4973794;28;20261;-79
2022/08/02 05:41:42;;;;;;;;;;;14.00;99.90;;;;;;4997769;28;19975;-79
2022/08/02 05:44:08;;;;;;;;;;;14.10;99.90;;;;;;4983022;28;19948;-81
2022/08/02 05:46:33;;;;;;;;;;;14.30;99.90;;;;;;4979611;28;19929;-81
2022/08/02 05:49:00;;;;;;;;;;;14.30;99.90;;;;;;4974501;28;19961;-81
2022/08/02 05:51:34;;;;;;;;;;;14.40;99.90;;;;;;4976730;28;19926;-80
2022/08/02 05:54:06;;;;;;;;;;;14.50;99.90;;;;;;4967811;28;20028;-81
2022/08/02 05:56:35;;;;;;;;;;;14.50;99.90;;;;;;5009484;28;19933;-88
2022/08/02 05:59:19;;;;;;;;;;;14.60;99.90;;;;;;4973437;28;19930;-83
2022/08/02 06:01:55;;;;;;;;;;;14.70;99.90;;;;;;4976512;28;19926;-82
2022/08/02 06:04:25;;;;;;;;;;;14.80;99.90;;;;;;4975391;28;19929;-78
2022/08/02 06:07:10;;;;;;;;;;;14.80;99.90;;;;;;5009132;28;19925;-85
2022/08/02 06:09:39;;;;;;;;;;;14.90;99.90;;;;;;4990484;28;19933;-82
2022/08/02 06:12:09;;;;;;;;;;;15.10;99.90;;;;;;5000178;28;19925;-82
2022/08/02 06:15:07;;;;;;;;;;;15.50;99.90;;;;;;4941286;28;20539;-87
2022/08/02 06:17:33;;;;;;;;;;;16.20;99.90;;;;;;4934300;28;19927;-79
2022/08/02 06:20:12;;;;;;;;;;;16.30;99.90;;;;;;4975573;28;20252;-81
2022/08/02 06:22:42;;;;;;;;;;;16.70;99.90;;;;;;4975830;28;20008;-81
2022/08/02 06:25:08;;;;;;;;;;;16.40;99.90;;;;;;4980709;28;19936;-86
2022/08/02 06:27:37;;;;;;;;;;;16.60;99.90;;;;;;4993450;28;19926;-83
2022/08/02 06:30:05;;;;;;;;;;;16.70;99.90;;;;;;4982351;28;19925;-84
2022/08/02 06:32:36;;;;;;;;;;;16.80;99.90;;;;;;5001707;28;19922;-83
2022/08/02 06:35:06;;;;;;;;;;;16.90;99.90;;;;;;4985772;28;19929;-88
2022/08/02 06:37:38;;;;;;;;;;;16.90;99.90;;;;;;4977640;23;20032;-83
2022/08/02 06:40:21;;;;;;;;;;;17.00;99.90;;;;;;5002329;28;19936;-82
2022/08/02 06:42:54;;;;;;;;;;;17.00;99.90;;;;;;4999481;28;20030;-80
2022/08/02 06:45:20;;;;;;;;;;;17.10;99.90;;;;;;4996861;28;19925;-82
2022/08/02 06:47:49;;;;;;;;;;;17.20;99.90;;;;;;4993311;28;19935;-85
2022/08/02 06:50:30;;;;;;;;;;;17.40;99.90;;;;;;5010213;28;19937;-82
2022/08/02 06:52:56;;;;;;;;;;;17.60;99.90;;;;;;4981442;28;19935;-84
2022/08/02 06:55:24;;;;;;;;;;;17.70;99.90;;;;;;4963674;28;22055;-82
2022/08/02 06:57:54;;;;;;;;;;;17.70;99.90;;;;;;4965051;28;19996;-86
2022/08/02 07:00:29;;;;;;;;;;;17.80;99.90;;;;;;4961120;28;20016;-82
2022/08/02 07:03:04;;;;;;;;;;;18.00;99.90;;;;;;4971235;28;19926;-86
2022/08/02 07:08:44;;;;;;;;;;;18.60;99.90;;;;;;4954774;28;19985;-83
2022/08/02 07:11:16;;;;;;;;;;;19.30;99.90;;;;;;4916532;29;20013;-80
2022/08/02 07:13:44;;;;;;;;;;;20.20;99.90;;;;;;4897678;28;19977;-86
2022/08/02 07:16:13;;;;;;;;;;;20.60;99.90;;;;;;4917344;29;20385;-82
2022/08/02 07:18:43;;;;;;;;;;;21.80;99.90;;;;;;4939590;28;20280;-82
2022/08/02 07:21:12;;;;;;;;;;;21.90;99.90;;;;;;4934707;29;19931;-85
2022/08/02 07:24:03;;;;;;;;;;;22.40;99.90;;;;;;4939971;28;19985;-82
2022/08/02 07:26:32;;;;;;;;;;;22.50;99.90;;;;;;4942704;29;19927;-83
2022/08/02 07:29:16;;;;;;;;;;;22.40;99.90;;;;;;4905899;28;19926;-85
2022/08/02 07:31:43;;;;;;;;;;;22.60;99.90;;;;;;4931012;28;20009;-81
2022/08/02 07:34:13;;;;;;;;;;;23.10;99.90;;;;;;4940386;28;19936;-84
2022/08/02 07:36:49;;;;;;;;;;;23.60;99.90;;;;;;4988860;28;19947;-85
2022/08/02 07:39:17;;;;;;;;;;;24.20;99.90;;;;;;4989178;28;20376;-86
2022/08/02 07:41:45;;;;;;;;;;;24.50;99.90;;;;;;4984746;28;20541;-82
2022/08/02 07:44:56;;;;;;;;;;;25.00;99.90;;;;;;4949033;28;19957;-83
2022/08/02 07:47:41;;;;;;;;;;;25.50;99.80;;;;;;4968172;28;20404;-83
2022/08/02 07:50:07;;;;;;;;;;;25.90;96.50;;;;;;4956384;28;20424;-84
2022/08/02 07:52:52;;;;;;;;;;;26.20;95.10;;;;;;4956751;28;19929;-83
2022/08/02 07:55:18;;;;;;;;;;;26.30;89.70;;;;;;4942233;28;19925;-87
2022/08/02 07:57:46;;;;;;;;;;;26.50;91.40;;;;;;4952465;28;20024;-83
2022/08/02 08:00:22;;;;;;;;;;;26.60;87.00;;;;;;4951234;28;19926;-81
2022/08/02 08:05:35;;;;;;;;;;;26.80;81.50;;;;;;4998994;23;19982;-78
2022/08/02 08:08:19;;;;;;;;;;;27.20;81.00;;;;;;4942619;28;19930;-80
2022/08/02 08:11:05;;;;;;;;;;;27.30;78.80;;;;;;4971311;28;19925;-82
2022/08/02 08:13:31;;;;;;;;;;;27.40;79.40;;;;;;4956571;28;20768;-82
2022/08/02 08:16:10;;;;;;;;;;;27.40;77.00;;;;;;4959408;28;19926;-81
2022/08/02 08:18:46;;;;;;;;;;;27.50;78.90;;;;;;4961232;28;20051;-81
2022/08/02 08:21:15;;;;;;;;;;;27.40;74.50;;;;;;4991598;23;20015;-82
2022/08/02 08:23:41;;;;;;;;;;;27.40;74.40;;;;;;4938429;28;19930;-85
2022/08/02 08:26:15;;;;;;;;;;;27.30;75.00;;;;;;4922621;28;20013;-82
2022/08/02 08:28:41;;;;;;;;;;;27.20;74.60;;;;;;4949439;28;19927;-81
2022/08/02 08:31:10;;;;;;;;;;;27.30;73.60;;;;;;4962192;28;20570;-88
2022/08/02 08:33:42;;;;;;;;;;;27.40;74.60;;;;;;4938567;28;19949;-81
2022/08/02 08:36:11;;;;;;;;;;;27.50;78.70;;;;;;4945411;28;20446;-82
2022/08/02 08:38:43;;;;;;;;;;;27.40;79.20;;;;;;4937748;28;19926;-82
2022/08/02 08:41:09;;;;;;;;;;;27.10;73.40;;;;;;4922032;28;19956;-83
2022/08/02 08:43:37;;;;;;;;;;;27.00;76.20;;;;;;4953774;28;20251;-83
2022/08/02 08:46:04;;;;;;;;;;;26.90;76.60;;;;;;4961043;28;20008;-86
2022/08/02 08:48:57;;;;;;;;;;;27.10;78.30;;;;;;4937464;28;19965;-83
2022/08/02 08:51:23;;;;;;;;;;;27.20;78.40;;;;;;4937657;28;20013;-83
2022/08/02 08:53:52;;;;;;;;;;;27.20;77.40;;;;;;4937957;28;20295;-81
2022/08/02 08:56:20;;;;;;;;;;;27.00;75.30;;;;;;4948498;28;19930;-85
2022/08/02 08:58:46;;;;;;;;;;;26.90;72.10;;;;;;4946920;28;19933;-84
2022/08/02 09:01:15;;;;;;;;;;;26.90;70.80;;;;;;4952646;28;20535;-79
2022/08/02 09:04:17;;;;;;;;;;;26.90;74.40;;;;;;4939541;28;20427;-80
2022/08/02 09:07:01;;;;;;;;;;;26.60;73.10;;;;;;4950001;28;20413;-81
2022/08/02 09:09:42;;;;;;;;;;;26.60;74.90;;;;;;4960495;28;19981;-82
2022/08/02 09:12:23;;;;;;;;;;;26.50;75.60;;;;;;4954554;28;19926;-82
2022/08/02 09:14:49;;;;;;;;;;;26.40;74.90;;;;;;4958030;28;19977;-82
2022/08/02 09:17:19;;;;;;;;;;;26.30;76.30;;;;;;4953234;28;20411;-81
2022/08/02 09:20:11;;;;;;;;;;;26.10;76.90;;;;;;4940517;28;19926;-82
2022/08/02 09:23:21;;;;;;;;;;;25.90;75.90;;;;;;4928332;29;20022;-83
2022/08/02 09:26:08;;;;;;;;;;;25.60;79.30;;;;;;4913515;28;20387;-83
2022/08/02 09:28:35;;;;;;;;;;;25.40;78.10;;;;;;4937199;28;20025;-82
2022/08/02 09:31:06;;;;;;;;;;;25.40;78.70;;;;;;4924057;28;19934;-81
2022/08/02 09:33:54;;;;;;;;;;;25.50;81.40;;;;;;4935296;28;19933;-85
2022/08/02 09:36:46;;;;;;;;;;;25.60;80.90;;;;;;4940443;28;19926;-83
2022/08/02 09:42:56;;;;;;;;;;;25.50;82.90;;;;;;4891612;29;19928;-83
2022/08/02 09:48:48;;;;;;;;;;;25.70;86.30;;;;;;4872386;29;19923;-83
2022/08/02 09:51:22;;;;;;;;;;;25.70;80.90;;;;;;4859098;29;20533;-81
2022/08/02 09:53:52;;;;;;;;;;;25.70;84.50;;;;;;4898540;29;19931;-85
2022/08/02 09:56:19;;;;;;;;;;;25.70;83.10;;;;;;4916395;29;19930;-80
2022/08/02 09:58:45;;;;;;;;;;;25.50;83.20;;;;;;4937767;28;19935;-81
2022/08/02 10:01:11;;;;;;;;;;;25.50;85.70;;;;;;4906272;28;20336;-80
2022/08/02 10:04:13;;;;;;;;;;;25.30;89.80;;;;;;4917985;28;19934;-80
2022/08/02 10:06:39;;;;;;;;;;;25.20;85.90;;;;;;4899928;29;19976;-84
2022/08/02 10:09:36;;;;;;;;;;;25.20;86.10;;;;;;4926722;28;19977;-83
2022/08/02 10:12:02;;;;;;;;;;;25.20;85.70;;;;;;4951258;28;19933;-84
2022/08/02 10:14:28;;;;;;;;;;;25.40;88.80;;;;;;4923540;28;20106;-82
2022/08/02 10:17:04;;;;;;;;;;;25.50;86.40;;;;;;4902582;28;19931;-81
2022/08/02 10:19:44;;;;;;;;;;;25.60;85.70;;;;;;4943168;28;20420;-80
2022/08/02 10:22:41;;;;;;;;;;;25.60;90.50;;;;;;4922530;28;19966;-80
2022/08/02 10:25:32;;;;;;;;;;;25.60;89.60;;;;;;4943431;28;20512;-79
2022/08/02 10:31:37;;;;;;;;;;;25.80;90.20;;;;;;4946643;28;19969;-80
2022/08/02 10:34:12;;;;;;;;;;;25.80;88.20;;;;;;5005506;23;19926;-81
2022/08/02 10:36:39;;;;;;;;;;;25.80;89.30;;;;;;4932999;28;20645;-79
2022/08/02 10:39:34;;;;;;;;;;;26.00;90.80;;;;;;4953348;28;19934;-82
2022/08/02 10:42:02;;;;;;;;;;;26.00;91.30;;;;;;4945773;28;20556;-88
2022/08/02 10:44:50;;;;;;;;;;;26.20;90.60;;;;;;4919387;28;19926;-79
2022/08/02 10:47:37;;;;;;;;;;;26.20;90.30;;;;;;4957881;28;19934;-85
2022/08/02 10:52:41;;;;;;;;;;;26.10;89.50;;;;;;5019605;23;19967;-83
2022/08/02 10:55:13;;;;;;;;;;;26.30;90.40;;;;;;4989909;28;19930;-83
2022/08/02 10:57:39;;;;;;;;;;;26.30;90.10;;;;;;4974596;28;19935;-80
2022/08/02 11:00:04;;;;;;;;;;;26.30;91.70;;;;;;4973011;28;20303;-81
2022/08/02 11:02:43;;;;;;;;;;;26.50;91.50;;;;;;4992130;28;19976;-81
2022/08/02 11:05:12;;;;;;;;;;;26.70;92.00;;;;;;4963077;28;20015;-82
2022/08/02 11:07:40;;;;;;;;;;;27.00;91.80;;;;;;4994992;28;19925;-80
2022/08/02 11:10:25;;;;;;;;;;;27.20;89.00;;;;;;4966121;28;20281;-83
2022/08/02 11:13:20;;;;;;;;;;;27.20;91.10;;;;;;4976011;28;19929;-84
2022/08/02 11:16:13;;;;;;;;;;;27.10;90.20;;;;;;4972733;28;19929;-82
2022/08/02 11:19:03;;;;;;;;;;;26.90;90.40;;;;;;4995821;28;20331;-82
2022/08/02 11:21:33;;;;;;;;;;;26.80;91.80;;;;;;4980608;28;19936;-82
2022/08/02 11:24:26;;;;;;;;;;;26.90;92.50;;;;;;4973020;28;19945;-82
2022/08/02 11:26:52;;;;;;;;;;;26.80;90.30;;;;;;4982660;28;19935;-83
2022/08/02 11:29:49;;;;;;;;;;;26.90;91.40;;;;;;4983405;28;19921;-85
2022/08/02 11:32:27;;;;;;;;;;;26.70;90.40;;;;;;4997084;28;19926;-84
2022/08/02 11:35:31;;;;;;;;;;;26.60;91.50;;;;;;4979846;28;19925;-81
2022/08/02 11:41:39;;;;;;;;;;;26.20;93.40;;;;;;4999084;28;19933;-83
2022/08/02 11:44:06;;;;;;;;;;;26.30;93.30;;;;;;4977357;28;20354;-89
2022/08/02 11:46:42;;;;;;;;;;;26.00;92.30;;;;;;4985783;28;20238;-80
2022/08/02 11:49:17;;;;;;;;;;;26.00;91.80;;;;;;4953329;28;19933;-85
2022/08/02 11:52:09;;;;;;;;;;;26.10;94.50;;;;;;4926295;29;19927;-85
2022/08/02 11:54:42;;;;;;;;;;;26.10;95.10;;;;;;4950008;28;20016;-79
2022/08/02 11:57:35;;;;;;;;;;;26.10;97.00;;;;;;4933766;28;20391;-80
2022/08/02 12:00:28;;;;;;;;;;;26.10;97.60;;;;;;4955886;28;19961;-79
2022/08/02 12:02:54;;;;;;;;;;;26.00;97.80;;;;;;4919785;28;20141;-81
2022/08/02 12:05:32;;;;;;;;;;;25.90;98.40;;;;;;4932526;28;20405;-80
2022/08/02 12:08:08;;;;;;;;;;;25.90;99.50;;;;;;4918982;28;19937;-80
2022/08/02 12:10:34;;;;;;;;;;;25.90;99.60;;;;;;4946920;28;19937;-82
2022/08/02 12:19:28;;;;;;;;;;;25.80;99.70;;;;;;4974034;28;19928;-81
2022/08/02 12:22:13;;;;;;;;;;;25.70;99.90;;;;;;4998736;28;20402;-81
2022/08/02 12:24:40;;;;;;;;;;;25.60;99.90;;;;;;4981330;28;19929;-81
2022/08/02 12:27:06;;;;;;;;;;;25.50;99.80;;;;;;4999967;28;19929;-80
2022/08/02 12:29:33;;;;;;;;;;;25.40;99.90;;;;;;4973686;28;19926;-81
2022/08/02 12:32:01;;;;;;;;;;;25.30;99.90;;;;;;4981596;28;20441;-80
2022/08/02 12:34:27;;;;;;;;;;;25.20;99.90;;;;;;4991783;28;20044;-81
2022/08/02 12:36:58;;;;;;;;;;;25.10;99.90;;;;;;4998175;28;19940;-81
2022/08/02 12:39:36;;;;;;;;;;;25.10;99.90;;;;;;4982461;28;19933;-79
2022/08/02 12:42:20;;;;;;;;;;;25.10;99.90;;;;;;4984767;28;20031;-79
2022/08/02 12:48:17;;;;;;;;;;;25.10;99.90;;;;;;4947556;28;19930;-83
2022/08/02 12:51:02;;;;;;;;;;;25.10;99.90;;;;;;4931065;28;19927;-82
2022/08/02 12:53:32;;;;;;;;;;;25.00;99.90;;;;;;4931395;28;20024;-85
2022/08/02 12:56:01;;;;;;;;;;;25.10;99.90;;;;;;4931416;28;20308;-79
2022/08/02 12:58:49;;;;;;;;;;;25.00;99.90;;;;;;4928826;28;19933;-79
2022/08/02 13:01:22;;;;;;;;;;;25.00;99.90;;;;;;4944169;28;20105;-80
2022/08/02 13:03:59;;;;;;;;;;;24.90;99.90;;;;;;4952903;28;20049;-80
2022/08/02 13:06:50;;;;;;;;;;;24.80;99.90;;;;;;4914892;28;20408;-80
2022/08/02 13:09:28;;;;;;;;;;;24.70;99.90;;;;;;4918965;28;19941;-80
2022/08/02 13:11:54;;;;;;;;;;;24.60;99.90;;;;;;4947092;28;20312;-79
2022/08/02 13:14:57;;;;;;;;;;;24.50;99.90;;;;;;4920028;28;19934;-82
2022/08/02 13:17:31;;;;;;;;;;;23.90;99.90;;;;;;4963979;28;19926;-79
2022/08/02 13:20:19;;;;;;;;;;;24.20;99.90;;;;;;4947460;28;19926;-79
2022/08/02 13:23:20;;;;;;;;;;;24.50;99.90;;;;;;4936653;29;20447;-82
2022/08/02 13:26:13;;;;;;;;;;;25.50;99.90;;;;;;4944525;28;20408;-79
2022/08/02 13:29:04;;;;;;;;;;;24.60;99.90;;;;;;4947448;28;20217;-78
2022/08/02 13:31:59;;;;;;;;;;;24.40;99.90;;;;;;4948111;28;19977;-82
2022/08/02 13:37:40;;;;;;;;;;;25.20;99.90;;;;;;4910200;29;19931;-81
2022/08/02 13:40:15;;;;;;;;;;;24.20;99.90;;;;;;4931559;29;19938;-83
2022/08/02 13:43:05;;;;;;;;;;;24.10;99.90;;;;;;4951755;28;19936;-82
2022/08/02 13:46:13;;;;;;;;;;;;;;;;;;;;;
2022/08/02 13:48:48;;;;;;;;;;;24.20;99.90;;;;;;4941591;28;19936;-82
2022/08/02 13:52:15;;;;;;;;;;;24.00;99.90;;;;;;4945808;28;19930;-82
2022/08/02 13:54:25;;;;;;;;;;;24.00;99.90;;;;;;4930336;29;19962;-84
2022/08/02 13:57:12;;;;;;;;;;;24.10;99.90;;;;;;4913850;29;19926;-87
2022/08/02 14:03:27;;;;;;;;;;;24.10;99.90;;;;;;4912023;29;19930;-81
2022/08/02 14:05:56;;;;;;;;;;;24.10;99.90;;;;;;4903864;29;19943;-83
2022/08/02 14:08:24;;;;;;;;;;;24.10;99.90;;;;;;4898230;29;20560;-81
2022/08/02 14:10:50;;;;;;;;;;;24.10;99.90;;;;;;4912018;29;20005;-80
2022/08/02 14:13:26;;;;;;;;;;;24.10;99.90;;;;;;4909844;29;19986;-83
2022/08/02 14:19:29;;;;;;;;;;;24.00;99.90;;;;;;4854259;29;19927;-80
2022/08/02 14:25:12;;;;;;;;;;;24.10;99.90;;;;;;4912533;28;20693;-83
2022/08/02 14:27:41;;;;;;;;;;;24.00;99.90;;;;;;4926452;28;19926;-85
2022/08/02 14:30:25;;;;;;;;;;;24.10;99.90;;;;;;4922279;28;19930;-82
2022/08/02 14:33:02;;;;;;;;;;;;;;;;;;;;;
2022/08/02 14:35:35;;;;;;;;;;;24.10;99.90;;;;;;4914766;28;19937;-82
2022/08/02 14:38:09;;;;;;;;;;;24.00;99.90;;;;;;4924406;28;19982;-77
2022/08/02 14:44:28;;;;;;;;;;;24.00;99.90;;;;;;4965558;28;19936;-79
2022/08/02 14:51:04;;;;;;;;;;;23.90;99.90;;;;;;4868345;29;20355;-78
2022/08/02 14:57:13;;;;;;;;;;;24.10;99.90;;;;;;4856457;29;19975;-81
2022/08/02 15:00:11;;;;;;;;;;;24.10;99.90;;;;;;5074949;23;19956;-81
2022/08/02 15:02:53;;;;;;;;;;;24.10;99.90;;;;;;4982289;28;19929;-80
2022/08/02 15:08:22;;;;;;;;;;;24.20;99.90;;;;;;5001468;28;20054;-80
2022/08/02 15:11:08;;;;;;;;;;;24.20;99.90;;;;;;4960467;28;20502;-82
2022/08/02 15:13:44;;;;;;;;;;;24.30;99.90;;;;;;4970390;28;19937;-81
2022/08/02 15:16:33;;;;;;;;;;;;;;;;;;;;;
2022/08/02 15:19:56;;;;;;;;;;;;;;;;;;;;;
2022/08/02 15:22:38;;;;;;;;;;;24.30;99.90;;;;;;4977009;28;20464;-81
2022/08/02 15:25:08;;;;;;;;;;;24.10;99.90;;;;;;4963077;28;19976;-81
2022/08/02 15:28:15;;;;;;;;;;;24.20;99.90;;;;;;4954200;28;20085;-80
2022/08/02 15:30:48;;;;;;;;;;;24.20;99.90;;;;;;4971382;28;19938;-84
2022/08/02 15:36:46;;;;;;;;;;;24.30;99.90;;;;;;4970015;28;20407;-80
2022/08/02 15:39:19;;;;;;;;;;;24.40;99.90;;;;;;4964385;28;20013;-82
2022/08/02 15:42:19;;;;;;;;;;;24.40;99.90;;;;;;4977576;28;20449;-81
2022/08/02 15:44:55;;;;;;;;;;;24.40;99.90;;;;;;4980224;28;19925;-84
2022/08/02 15:47:48;;;;;;;;;;;24.40;99.90;;;;;;4996541;28;19929;-82
2022/08/02 15:50:47;;;;;;;;;;;24.40;99.90;;;;;;4997470;28;19945;-80
2022/08/02 15:53:19;;;;;;;;;;;24.30;99.90;;;;;;4984237;28;19925;-80
2022/08/02 15:55:47;;;;;;;;;;;24.30;99.90;;;;;;4994896;28;20358;-80
2022/08/02 15:58:28;;;;;;;;;;;24.30;99.90;;;;;;4972811;28;19926;-78
2022/08/02 16:00:55;;;;;;;;;;;24.30;99.90;;;;;;5000709;28;19929;-80
2022/08/02 16:03:22;;;;;;;;;;;24.30;99.90;;;;;;5000881;28;19925;-79
2022/08/02 16:06:06;;;;;;;;;;;24.30;99.90;;;;;;4977449;28;19968;-82
2022/08/02 16:08:57;;;;;;;;;;;24.30;99.90;;;;;;4975777;28;19925;-81
2022/08/02 16:11:23;;;;;;;;;;;24.30;99.90;;;;;;4977333;28;19925;-81